createdAt,value
2018-06-11T00:01:49.244Z,12.77
2018-06-11T00:04:17.800Z,12.03
2018-06-11T00:06:46.350Z,11.90
2018-06-11T00:09:15.079Z,12.40
2018-06-11T00:11:43.690Z,11.50
2018-06-11T00:14:12.291Z,15.83
2018-06-11T00:16:40.772Z,16.27
2018-06-11T00:19:09.299Z,12.80
2018-06-11T00:21:37.817Z,12.30
2018-06-11T00:24:06.337Z,12.00
2018-06-11T00:26:34.518Z,10.53
2018-06-11T00:29:02.710Z,11.47
2018-06-11T00:31:31.246Z,12.37
2018-06-11T00:33:59.785Z,10.73
2018-06-11T00:36:28.291Z,12.40
2018-06-11T00:38:56.892Z,12.53
2018-06-11T00:41:25.464Z,11.60
2018-06-11T00:43:54.020Z,12.63
2018-06-11T00:46:22.544Z,12.57
2018-06-11T00:48:51.119Z,11.97
2018-06-11T00:51:19.597Z,11.43
2018-06-11T00:53:48.164Z,13.43
2018-06-11T00:56:16.697Z,13.20
2018-06-11T00:58:45.252Z,11.40
2018-06-11T01:01:13.745Z,11.77
2018-06-11T01:03:42.240Z,12.93
2018-06-11T01:06:10.793Z,11.53
2018-06-11T01:08:39.385Z,11.83
2018-06-11T01:11:07.939Z,13.27
2018-06-11T01:13:36.612Z,13.53
2018-06-11T01:16:05.589Z,13.67
2018-06-11T01:18:34.155Z,11.23
2018-06-11T01:21:02.737Z,11.53
2018-06-11T01:23:31.628Z,11.10
2018-06-11T01:26:00.214Z,12.03
2018-06-11T01:28:28.810Z,11.83
2018-06-11T01:30:57.444Z,11.97
2018-06-11T01:33:25.982Z,11.70
2018-06-11T01:35:55.162Z,12.30
2018-06-11T01:38:23.708Z,14.30
2018-06-11T01:40:52.221Z,10.90
2018-06-11T01:43:20.813Z,13.23
2018-06-11T01:45:49.378Z,11.93
2018-06-11T01:48:17.921Z,11.30
2018-06-11T01:50:46.104Z,13.00
2018-06-11T01:53:14.658Z,10.67
2018-06-11T01:55:43.161Z,12.63
2018-06-11T01:58:11.737Z,14.90
2018-06-11T02:00:40.308Z,10.97
2018-06-11T02:03:08.811Z,11.83
2018-06-11T02:05:37.329Z,12.27
2018-06-11T02:08:05.880Z,13.23
2018-06-11T02:10:35.828Z,11.23
2018-06-11T02:13:04.401Z,12.73
2018-06-11T02:15:32.899Z,11.20
2018-06-11T02:18:01.452Z,14.73
2018-06-11T02:20:29.972Z,11.67
2018-06-11T02:22:59.088Z,11.83
2018-06-11T02:25:27.562Z,12.77
2018-06-11T02:27:56.066Z,11.23
2018-06-11T02:30:25.126Z,12.13
2018-06-11T02:32:54.399Z,12.97
2018-06-11T02:35:23.429Z,12.77
2018-06-11T02:37:52.844Z,11.87
2018-06-11T02:40:21.655Z,12.97
2018-06-11T02:42:51.011Z,12.37
2018-06-11T02:45:19.699Z,12.67
2018-06-11T02:47:48.884Z,10.80
2018-06-11T02:50:17.440Z,11.73
2018-06-11T02:52:45.974Z,11.03
2018-06-11T02:55:14.481Z,12.07
2018-06-11T02:57:43.029Z,11.83
2018-06-11T03:00:11.585Z,12.17
2018-06-11T03:02:40.181Z,11.63
2018-06-11T03:05:08.724Z,14.17
2018-06-11T03:07:37.324Z,13.07
2018-06-11T03:10:05.834Z,11.80
2018-06-11T03:12:34.540Z,12.57
2018-06-11T03:15:03.079Z,11.13
2018-06-11T03:17:31.574Z,13.13
2018-06-11T03:20:00.256Z,11.97
2018-06-11T03:22:28.794Z,14.13
2018-06-11T03:24:57.454Z,11.57
2018-06-11T03:27:27.267Z,12.17
2018-06-11T03:29:55.465Z,12.83
2018-06-11T03:32:23.962Z,11.67
2018-06-11T03:34:52.537Z,11.13
2018-06-11T03:37:21.041Z,13.93
2018-06-11T03:39:49.564Z,11.37
2018-06-11T03:42:18.008Z,11.37
2018-06-11T03:44:46.597Z,12.57
2018-06-11T03:47:15.080Z,12.00
2018-06-11T03:49:43.585Z,12.93
2018-06-11T03:52:12.064Z,12.47
2018-06-11T03:54:40.640Z,11.07
2018-06-11T03:57:09.177Z,12.53
2018-06-11T03:59:37.760Z,11.60
2018-06-11T04:02:06.310Z,12.63
2018-06-11T04:04:35.230Z,12.27
2018-06-11T04:07:03.873Z,11.00
2018-06-11T04:09:32.438Z,11.93
2018-06-11T04:12:00.932Z,11.90
2018-06-11T04:14:29.435Z,12.20
2018-06-11T04:16:57.954Z,11.17
2018-06-11T04:19:26.535Z,14.20
2018-06-11T04:21:54.997Z,12.03
2018-06-11T04:24:23.535Z,12.70
2018-06-11T04:26:52.072Z,11.17
2018-06-11T04:29:20.950Z,12.57
2018-06-11T04:31:50.356Z,15.07
2018-06-11T04:34:19.244Z,11.93
2018-06-11T04:36:47.822Z,15.80
2018-06-11T04:39:16.511Z,12.50
2018-06-11T04:41:44.678Z,12.20
2018-06-11T04:44:13.345Z,16.77
2018-06-11T04:46:41.916Z,13.20
2018-06-11T04:49:10.518Z,12.57
2018-06-11T04:51:39.031Z,12.30
2018-06-11T04:54:07.233Z,12.70
2018-06-11T04:56:36.569Z,12.53
2018-06-11T04:59:05.130Z,13.83
2018-06-11T05:01:34.181Z,15.20
2018-06-11T05:04:02.731Z,13.57
2018-06-11T05:06:31.225Z,13.93
2018-06-11T05:08:59.778Z,15.00
2018-06-11T05:11:28.290Z,12.80
2018-06-11T05:13:56.756Z,12.47
2018-06-11T05:16:25.315Z,12.53
2018-06-11T05:18:53.543Z,13.70
2018-06-11T05:21:22.427Z,13.67
2018-06-11T05:23:50.950Z,11.60
2018-06-11T05:26:19.518Z,16.47
2018-06-11T05:28:48.082Z,13.27
2018-06-11T05:31:16.560Z,12.30
2018-06-11T05:33:45.100Z,16.50
2018-06-11T05:36:13.645Z,14.47
2018-06-11T05:38:42.267Z,15.47
2018-06-11T05:41:10.859Z,13.80
2018-06-11T05:43:39.410Z,13.00
2018-06-11T05:46:08.055Z,14.23
2018-06-11T05:48:36.575Z,12.27
2018-06-11T05:51:05.120Z,13.70
2018-06-11T05:53:33.755Z,13.97
2018-06-11T05:56:02.271Z,18.13
2018-06-11T05:58:30.767Z,13.63
2018-06-11T06:00:59.596Z,16.00
2018-06-11T06:03:28.188Z,14.13
2018-06-11T06:05:56.751Z,15.07
2018-06-11T06:08:25.435Z,14.23
2018-06-11T06:10:54.688Z,14.97
2018-06-11T06:13:23.238Z,14.40
2018-06-11T06:15:51.756Z,12.90
2018-06-11T06:18:20.330Z,13.90
2018-06-11T06:20:48.873Z,14.47
2018-06-11T06:23:17.477Z,12.90
2018-06-11T06:25:45.976Z,14.03
2018-06-11T06:28:14.537Z,12.87
2018-06-11T06:30:43.078Z,12.90
2018-06-11T06:33:11.634Z,15.07
2018-06-11T06:35:40.197Z,13.27
2018-06-11T06:38:08.794Z,15.63
2018-06-11T06:40:37.301Z,15.50
2018-06-11T06:43:06.119Z,12.90
2018-06-11T06:45:34.706Z,12.53
2018-06-11T06:48:03.209Z,14.50
2018-06-11T06:50:31.959Z,13.10
2018-06-11T06:53:00.511Z,12.00
2018-06-11T06:55:29.431Z,14.77
2018-06-11T06:57:58.078Z,11.50
2018-06-11T07:00:26.588Z,13.03
2018-06-11T07:02:55.096Z,11.23
2018-06-11T07:05:23.784Z,12.07
2018-06-11T07:07:52.269Z,11.80
2018-06-11T07:10:20.781Z,12.33
2018-06-11T07:12:49.349Z,13.53
2018-06-11T07:15:17.867Z,14.77
2018-06-11T07:17:46.548Z,14.57
2018-06-11T07:20:15.056Z,11.93
2018-06-11T07:22:43.884Z,12.83
2018-06-11T07:25:12.415Z,13.47
2018-06-11T07:27:41.026Z,16.73
2018-06-11T07:30:09.693Z,13.07
2018-06-11T07:32:38.266Z,13.10
2018-06-11T07:35:07.069Z,12.90
2018-06-11T07:37:35.655Z,13.20
2018-06-11T07:40:04.183Z,15.37
2018-06-11T07:42:32.685Z,13.20
2018-06-11T07:45:01.287Z,19.07
2018-06-11T07:47:29.464Z,12.97
2018-06-11T07:49:58.031Z,13.97
2018-06-11T07:52:26.570Z,12.03
2018-06-11T07:54:55.116Z,12.03
2018-06-11T07:57:24.645Z,11.80
2018-06-11T07:59:52.866Z,13.93
2018-06-11T08:02:21.489Z,19.93
2018-06-11T08:04:50.104Z,11.70
2018-06-11T08:07:18.254Z,12.03
2018-06-11T08:09:47.109Z,15.27
2018-06-11T08:12:16.678Z,13.27
2018-06-11T08:14:45.258Z,13.27
2018-06-11T08:17:15.177Z,14.07
2018-06-11T08:19:43.795Z,15.33
2018-06-11T08:22:12.321Z,15.50
2018-06-11T08:24:40.915Z,18.57
2018-06-11T08:27:09.468Z,15.73
2018-06-11T08:29:38.096Z,15.33
2018-06-11T08:32:06.867Z,14.90
2018-06-11T08:34:35.572Z,14.77
2018-06-11T08:37:04.555Z,14.63
2018-06-11T08:39:33.073Z,14.70
2018-06-11T08:42:02.115Z,16.33
2018-06-11T08:44:30.800Z,16.13
2018-06-11T08:46:59.271Z,15.10
2018-06-11T08:49:27.848Z,19.37
2018-06-11T08:51:56.422Z,15.00
2018-06-11T08:54:25.053Z,16.30
2018-06-11T08:56:53.731Z,15.83
2018-06-11T08:59:22.716Z,16.57
2018-06-11T09:01:51.270Z,17.93
2018-06-11T09:04:20.223Z,16.17
2018-06-11T09:06:48.746Z,15.73
2018-06-11T09:09:17.245Z,14.47
2018-06-11T09:11:45.772Z,12.90
2018-06-11T09:14:14.264Z,14.27
2018-06-11T09:16:42.812Z,11.93
2018-06-11T09:19:11.681Z,12.27
2018-06-11T09:21:40.532Z,13.93
2018-06-11T09:24:09.044Z,15.03
2018-06-11T09:26:37.653Z,12.97
2018-06-11T09:29:06.521Z,11.57
2018-06-11T09:31:35.111Z,12.67
2018-06-11T09:34:03.711Z,10.07
2018-06-11T09:36:32.302Z,10.33
2018-06-11T09:39:00.780Z,11.67
2018-06-11T09:41:29.274Z,11.87
2018-06-11T09:43:57.922Z,11.93
2018-06-11T09:46:26.409Z,11.67
2018-06-11T09:48:55.026Z,10.70
2018-06-11T09:51:23.588Z,10.03
2018-06-11T09:53:52.825Z,10.40
2018-06-11T09:56:21.364Z,9.83
2018-06-11T09:58:49.862Z,11.17
2018-06-11T10:01:18.742Z,12.97
2018-06-11T10:03:47.860Z,11.17
2018-06-11T10:06:16.631Z,10.50
2018-06-11T10:08:45.193Z,10.57
2018-06-11T10:11:13.697Z,9.53
2018-06-11T10:13:42.985Z,10.30
2018-06-11T10:16:14.542Z,13.70
2018-06-11T10:18:49.158Z,9.40
2018-06-11T10:21:17.520Z,10.70
2018-06-11T10:23:46.572Z,11.90
2018-06-11T10:26:15.233Z,11.00
2018-06-11T10:28:44.133Z,9.93
2018-06-11T10:31:12.623Z,9.73
2018-06-11T10:33:41.177Z,13.40
2018-06-11T10:36:09.736Z,12.50
2018-06-11T10:38:38.266Z,13.60
2018-06-11T10:41:06.821Z,10.80
2018-06-11T10:43:35.379Z,13.07
2018-06-11T10:46:04.271Z,10.50
2018-06-11T10:48:32.844Z,10.83
2018-06-11T10:51:01.447Z,13.73
2018-06-11T10:53:29.956Z,12.67
2018-06-11T10:55:58.557Z,10.57
2018-06-11T10:58:27.127Z,10.90
2018-06-11T11:00:55.620Z,14.50
2018-06-11T11:03:24.148Z,20.73
2018-06-11T11:05:52.688Z,10.00
2018-06-11T11:08:21.553Z,12.97
2018-06-11T11:10:50.079Z,14.67
2018-06-11T11:13:18.969Z,13.70
2018-06-11T11:15:47.519Z,16.77
2018-06-11T11:18:16.094Z,10.83
2018-06-11T11:20:44.889Z,10.50
2018-06-11T11:23:13.760Z,13.10
2018-06-11T11:25:42.560Z,11.27
2018-06-11T11:28:11.875Z,15.93
2018-06-11T11:30:40.387Z,11.80
2018-06-11T11:33:08.874Z,13.53
2018-06-11T11:35:37.441Z,11.90
2018-06-11T11:38:05.601Z,10.27
2018-06-11T11:40:34.710Z,12.03
2018-06-11T11:43:03.239Z,10.23
2018-06-11T11:45:31.728Z,10.90
2018-06-11T11:48:00.236Z,9.77
2018-06-11T11:50:28.823Z,13.13
2018-06-11T11:52:57.307Z,10.87
2018-06-11T11:55:25.911Z,10.87
2018-06-11T11:57:54.491Z,10.57
2018-06-11T12:00:23.158Z,10.07
2018-06-11T12:02:51.706Z,10.33
2018-06-11T12:05:20.265Z,7.83
2018-06-11T12:07:48.738Z,9.73
2018-06-11T12:10:18.276Z,10.77
2018-06-11T12:12:47.166Z,9.27
2018-06-11T12:15:15.691Z,8.97
2018-06-11T12:17:44.221Z,7.67
2018-06-11T12:20:12.799Z,9.60
2018-06-11T12:22:42.375Z,8.60
2018-06-11T12:25:10.909Z,11.67
2018-06-11T12:27:40.052Z,12.50
2018-06-11T12:30:08.608Z,9.73
2018-06-11T12:32:37.164Z,8.33
2018-06-11T12:35:05.982Z,14.63
2018-06-11T12:37:34.490Z,11.87
2018-06-11T12:40:03.079Z,8.70
2018-06-11T12:42:31.288Z,9.70
2018-06-11T12:44:59.748Z,7.83
2018-06-11T12:47:28.322Z,7.83
2018-06-11T12:49:57.176Z,8.50
2018-06-11T12:52:26.011Z,9.27
2018-06-11T12:54:54.542Z,8.67
2018-06-11T12:57:23.034Z,8.37
2018-06-11T12:59:51.545Z,8.87
2018-06-11T13:02:21.760Z,9.43
2018-06-11T13:04:50.780Z,9.50
2018-06-11T13:07:20.154Z,7.00
2018-06-11T13:09:48.634Z,7.63
2018-06-11T13:12:17.194Z,7.97
2018-06-11T13:14:45.797Z,10.40
2018-06-11T13:17:14.708Z,9.57
2018-06-11T13:19:43.247Z,8.07
2018-06-11T13:22:12.285Z,7.87
2018-06-11T13:24:40.810Z,14.10
2018-06-11T13:27:09.311Z,8.73
2018-06-11T13:29:37.828Z,5.83
2018-06-11T13:32:06.380Z,10.57
2018-06-11T13:34:35.098Z,7.33
2018-06-11T13:37:04.081Z,7.20
2018-06-11T13:39:32.628Z,10.33
2018-06-11T13:42:01.121Z,7.33
2018-06-11T13:44:29.627Z,9.90
2018-06-11T13:46:58.125Z,8.57
2018-06-11T13:49:26.322Z,9.63
2018-06-11T13:51:55.153Z,7.53
2018-06-11T13:54:23.703Z,8.63
2018-06-11T13:56:52.666Z,9.40
2018-06-11T13:59:21.282Z,9.30
2018-06-11T14:01:50.040Z,6.50
2018-06-11T14:04:18.823Z,7.13
2018-06-11T14:06:47.329Z,10.57
2018-06-11T14:09:15.878Z,8.47
2018-06-11T14:11:44.706Z,6.80
2018-06-11T14:14:12.907Z,7.73
2018-06-11T14:16:41.443Z,9.00
2018-06-11T14:19:09.987Z,7.40
2018-06-11T14:21:38.750Z,7.53
2018-06-11T14:24:06.982Z,9.63
2018-06-11T14:26:35.544Z,10.83
2018-06-11T14:29:04.103Z,9.93
2018-06-11T14:31:32.913Z,8.00
2018-06-11T14:34:01.732Z,6.67
2018-06-11T14:36:30.685Z,9.83
2018-06-11T14:38:59.396Z,9.53
2018-06-11T14:41:27.921Z,6.57
2018-06-11T14:43:56.700Z,7.87
2018-06-11T14:46:25.234Z,9.37
2018-06-11T14:48:53.734Z,5.50
2018-06-11T14:51:22.285Z,8.93
2018-06-11T14:53:50.793Z,6.20
2018-06-11T14:56:19.325Z,6.57
2018-06-11T14:58:47.915Z,9.57
2018-06-11T15:01:16.574Z,8.40
2018-06-11T15:03:45.131Z,5.97
2018-06-11T15:06:13.771Z,7.20
2018-06-11T15:08:42.311Z,7.60
2018-06-11T15:11:10.960Z,5.80
2018-06-11T15:13:39.515Z,7.17
2018-06-11T15:16:08.305Z,4.97
2018-06-11T15:18:36.882Z,5.90
2018-06-11T15:21:05.485Z,5.23
2018-06-11T15:23:35.057Z,10.60
2018-06-11T15:26:03.484Z,6.10
2018-06-11T15:28:32.700Z,5.47
2018-06-11T15:31:01.259Z,6.50
2018-06-11T15:33:29.829Z,9.87
2018-06-11T15:35:58.346Z,6.57
2018-06-11T15:38:26.859Z,7.63
2018-06-11T15:40:55.469Z,5.67
2018-06-11T15:43:24.006Z,9.80
2018-06-11T15:45:52.574Z,6.87
2018-06-11T15:48:21.698Z,7.93
2018-06-11T15:50:51.206Z,8.87
2018-06-11T15:53:19.805Z,10.33
2018-06-11T15:55:48.317Z,10.30
2018-06-11T15:58:16.788Z,4.97
2018-06-11T16:00:45.309Z,7.70
2018-06-11T16:03:13.845Z,6.73
2018-06-11T16:05:42.492Z,6.60
2018-06-11T16:08:11.050Z,6.20
2018-06-11T16:10:39.557Z,8.17
2018-06-11T16:13:08.196Z,7.20
2018-06-11T16:15:36.733Z,8.47
2018-06-11T16:18:05.625Z,6.10
2018-06-11T16:20:37.233Z,4.83
2018-06-11T16:23:05.875Z,10.47
2018-06-11T16:25:34.469Z,7.13
2018-06-11T16:28:03.085Z,5.13
2018-06-11T16:30:31.658Z,7.70
2018-06-11T16:33:00.201Z,7.07
2018-06-11T16:35:29.774Z,6.40
2018-06-11T16:37:58.335Z,7.33
2018-06-11T16:40:26.919Z,6.13
2018-06-11T16:43:07.809Z,6.57
2018-06-11T16:45:37.011Z,5.50
2018-06-11T16:48:05.787Z,8.37
2018-06-11T16:50:34.396Z,6.23
2018-06-11T16:53:03.552Z,6.20
2018-06-11T16:55:32.192Z,8.17
2018-06-11T16:58:00.689Z,6.60
2018-06-11T17:00:29.213Z,6.53
2018-06-11T17:02:57.759Z,7.63
2018-06-11T17:05:26.591Z,6.27
2018-06-11T17:07:55.175Z,7.40
2018-06-11T17:10:23.782Z,5.13
2018-06-11T17:12:52.356Z,6.87
2018-06-11T17:15:20.958Z,7.87
2018-06-11T17:17:49.504Z,6.13
2018-06-11T17:20:18.059Z,8.40
2018-06-11T17:22:46.581Z,9.13
2018-06-11T17:25:15.155Z,7.07
2018-06-11T17:27:43.665Z,6.10
2018-06-11T17:30:12.190Z,10.00
2018-06-11T17:32:40.746Z,6.70
2018-06-11T17:35:09.310Z,5.80
2018-06-11T17:37:37.898Z,5.67
2018-06-11T17:40:06.547Z,7.13
2018-06-11T17:42:35.175Z,7.03
2018-06-11T17:45:03.748Z,7.23
2018-06-11T17:47:32.255Z,6.17
2018-06-11T17:50:00.757Z,5.53
2018-06-11T17:52:29.298Z,6.00
2018-06-11T17:54:57.854Z,6.27
2018-06-11T17:57:26.461Z,7.70
2018-06-11T17:59:54.969Z,6.47
2018-06-11T18:02:23.509Z,7.27
2018-06-11T18:04:51.709Z,8.03
2018-06-11T18:07:20.259Z,8.80
2018-06-11T18:09:48.776Z,8.73
2018-06-11T18:12:17.342Z,9.80
2018-06-11T18:14:45.982Z,7.67
2018-06-11T18:17:14.608Z,8.03
2018-06-11T18:19:43.425Z,8.40
2018-06-11T18:22:11.936Z,7.80
2018-06-11T18:24:40.447Z,6.20
2018-06-11T18:27:09.007Z,9.10
2018-06-11T18:29:37.539Z,7.90
2018-06-11T18:32:06.302Z,9.43
2018-06-11T18:34:34.844Z,10.87
2018-06-11T18:37:03.351Z,10.33
2018-06-11T18:39:31.889Z,8.83
2018-06-11T18:42:01.187Z,9.90
2018-06-11T18:44:29.617Z,8.70
2018-06-11T18:46:58.633Z,11.17
2018-06-11T18:49:27.098Z,9.10
2018-06-11T18:51:55.708Z,10.90
2018-06-11T18:54:27.185Z,12.90
2018-06-11T18:57:03.128Z,9.60
2018-06-11T18:59:34.890Z,10.10
2018-06-11T19:02:04.748Z,11.37
2018-06-11T19:04:33.268Z,10.63
2018-06-11T19:07:01.827Z,12.77
2018-06-11T19:09:30.307Z,9.67
2018-06-11T19:11:58.514Z,9.47
2018-06-11T19:14:27.002Z,9.23
2018-06-11T19:16:58.439Z,10.73
2018-06-11T19:19:30.779Z,10.23
2018-06-11T19:21:59.618Z,9.90
2018-06-11T19:24:27.797Z,9.03
2018-06-11T19:26:59.751Z,8.50
2018-06-11T19:29:28.309Z,8.13
2018-06-11T19:31:56.893Z,9.13
2018-06-11T19:34:25.586Z,9.57
2018-06-11T19:36:54.056Z,8.90
2018-06-11T19:39:22.570Z,9.53
2018-06-11T19:41:51.375Z,10.33
2018-06-11T19:44:19.864Z,11.77
2018-06-11T19:46:48.409Z,9.63
2018-06-11T19:49:17.606Z,9.13
2018-06-11T19:51:46.413Z,12.77
2018-06-11T19:54:15.030Z,11.27
2018-06-11T19:56:43.649Z,9.87
2018-06-11T19:59:12.139Z,11.40
2018-06-11T20:01:40.812Z,9.33
2018-06-11T20:04:09.397Z,15.90
2018-06-11T20:06:38.253Z,10.87
2018-06-11T20:09:08.141Z,9.30
2018-06-11T20:11:36.779Z,10.33
2018-06-11T20:14:05.019Z,10.87
2018-06-11T20:16:33.577Z,10.40
2018-06-11T20:19:02.277Z,11.70
2018-06-11T20:21:30.850Z,10.37
2018-06-11T20:23:59.526Z,11.60
2018-06-11T20:26:28.100Z,8.50
2018-06-11T20:28:56.995Z,10.70
2018-06-11T20:31:25.934Z,11.03
2018-06-11T20:33:54.551Z,10.77
2018-06-11T20:36:23.263Z,11.87
2018-06-11T20:38:51.846Z,9.73
2018-06-11T20:41:20.413Z,9.93
2018-06-11T20:43:49.063Z,10.40
2018-06-11T20:46:17.719Z,8.80
2018-06-11T20:48:46.335Z,10.80
2018-06-11T20:51:14.900Z,9.60
2018-06-11T20:53:43.467Z,13.23
2018-06-11T20:56:12.122Z,9.67
2018-06-11T20:58:40.692Z,10.87
2018-06-11T21:01:09.388Z,10.80
2018-06-11T21:03:37.969Z,11.77
2018-06-11T21:06:06.566Z,10.50
2018-06-11T21:08:35.135Z,11.13
2018-06-11T21:11:03.693Z,10.90
2018-06-11T21:13:32.249Z,11.57
2018-06-11T21:16:00.935Z,13.03
2018-06-11T21:18:29.430Z,12.43
2018-06-11T21:20:57.975Z,10.77
2018-06-11T21:23:26.456Z,10.17
2018-06-11T21:25:55.017Z,13.00
2018-06-11T21:28:23.456Z,11.20
2018-06-11T21:30:52.046Z,10.37
2018-06-11T21:33:20.831Z,10.10
2018-06-11T21:35:49.369Z,12.70
2018-06-11T21:38:17.873Z,12.43
2018-06-11T21:40:46.466Z,11.53
2018-06-11T21:43:15.241Z,10.57
2018-06-11T21:45:43.795Z,10.70
2018-06-11T21:48:12.292Z,10.40
2018-06-11T21:50:40.761Z,11.17
2018-06-11T21:53:09.264Z,11.57
2018-06-11T21:55:37.811Z,10.17
2018-06-11T21:58:06.301Z,11.57
2018-06-11T22:00:34.967Z,15.13
2018-06-11T22:03:03.511Z,11.83
2018-06-11T22:05:32.029Z,14.77
2018-06-11T22:08:15.353Z,11.50
2018-06-11T22:10:43.831Z,14.30
2018-06-11T22:13:12.344Z,14.13
2018-06-11T22:15:40.886Z,12.30
2018-06-11T22:18:09.927Z,13.70
2018-06-11T22:20:38.432Z,13.50
2018-06-11T22:23:06.973Z,14.10
2018-06-11T22:25:35.232Z,13.13
2018-06-11T22:28:03.758Z,13.73
2018-06-11T22:30:32.333Z,12.53
2018-06-11T22:33:00.840Z,13.73
2018-06-11T22:35:29.376Z,12.83
2018-06-11T22:37:57.806Z,14.50
2018-06-11T22:40:26.321Z,13.97
2018-06-11T22:42:54.818Z,20.47
2018-06-11T22:45:23.387Z,17.80
2018-06-11T22:47:51.951Z,21.23
2018-06-11T22:50:20.444Z,14.83
2018-06-11T22:52:49.043Z,14.47
2018-06-11T22:55:17.516Z,17.13
2018-06-11T22:57:46.076Z,14.90
2018-06-11T23:00:18.658Z,16.73
2018-06-11T23:02:47.142Z,15.60
2018-06-11T23:05:15.591Z,17.00
2018-06-11T23:07:44.097Z,15.13
2018-06-11T23:10:12.553Z,18.87
2018-06-11T23:12:41.080Z,15.47
2018-06-11T23:15:09.600Z,15.93
2018-06-11T23:17:38.098Z,15.27
2018-06-11T23:20:06.619Z,15.57
2018-06-11T23:22:35.217Z,18.00
2018-06-11T23:25:03.385Z,16.33
2018-06-11T23:27:31.555Z,15.40
2018-06-11T23:30:00.010Z,14.87
2018-06-11T23:32:28.522Z,15.37
2018-06-11T23:34:57.929Z,15.33
2018-06-11T23:37:26.476Z,15.53
2018-06-11T23:39:54.979Z,17.80
2018-06-11T23:42:23.540Z,15.07
2018-06-11T23:44:51.993Z,15.40
2018-06-11T23:47:20.585Z,16.17
2018-06-11T23:49:49.117Z,16.00
2018-06-11T23:52:17.597Z,17.17
2018-06-11T23:54:46.090Z,15.23
2018-06-11T23:57:14.572Z,17.87
2018-06-11T23:59:43.051Z,16.23
